Latest Weather Observations for Middle Point

IDD60901

Issued at 7:31 am CST Wednesday 12 August 2020 (issued every 10 minutes, with the page automatically refreshed every 10 minutes)

About weather observations | Map of Darwin area stations | Latest observations for Darwin area | Other Formats
Station Details ID: 014041 Name: MIDDLE POINT Lat: -12.61 Lon: 131.30 Height: 14.1 m
Data from the previous 72 hours. | See also: Recent months at Middle Point
Date/Time
CST
Temp
°C
App
Temp
°C
Dew
Point
°C
Rel
Hum
%
Delta-T
°C
Wind Press
QNH
hPa
Press
MSL
hPa
Rain since
9am
mm
Dir  Spd
km/h
Gust
km/h
Spd
kts
Gust
kts
12/07:00am 21.2 24.6 21.0 99 0.1 ENE 4 6 2 3 1014.1 1014.0 0.0
12/06:30am 21.0 24.8 21.0 100 0.0 ENE 2 4 1 2 1013.6 1013.5 0.0
12/06:00am 21.1 25.4 21.1 100 0.0 CALM 0 0 0 0 1013.4 1013.3 0.0
12/05:30am 21.1 24.6 21.1 100 0.0 ENE 4 6 2 3 1013.2 1013.1 0.0
12/05:00am 19.4 22.4 19.2 99 0.1 E 2 4 1 2 1012.8 1012.7 0.0
12/04:30am 19.2 21.3 18.0 93 0.7 ESE 4 4 2 2 1012.5 1012.4 0.0
12/04:00am 20.4 23.8 20.1 98 0.2 ENE 2 2 1 1 1012.6 1012.5 0.0
12/03:30am 20.7 23.5 20.4 98 0.2 ENE 6 6 3 3 1012.7 1012.6 0.0
12/03:00am 20.8 24.7 20.3 97 0.3 CALM 0 0 0 0 1012.7 1012.6 0.0
12/02:30am 21.0 25.1 20.7 98 0.2 CALM 0 2 0 1 1012.7 1012.6 0.0
12/02:00am 20.0 22.0 19.2 95 0.5 W 7 9 4 5 1012.7 1012.6 0.0
12/01:30am 20.0 22.2 19.5 97 0.3 WSW 7 9 4 5 1013.2 1013.1 0.0
12/01:00am 20.4 23.2 19.7 96 0.4 WSW 4 4 2 2 1013.6 1013.5 0.0
12/12:30am 20.9 24.8 20.4 97 0.3 CALM 0 0 0 0 1014.0 1013.9 0.0
12/12:00am 21.2 25.0 20.2 94 0.6 CALM 0 0 0 0 1014.4 1014.3 0.0
 
Date/Time
CST
Temp
°C
App
Temp
°C
Dew
Point
°C
Rel
Hum
%
Delta-T
°C
Wind Press
QNH
hPa
Press
MSL
hPa
Rain since
9am
mm
Dir  Spd
km/h
Gust
km/h
Spd
kts
Gust
kts
11/11:30pm 21.5 24.6 20.3 93 0.8 NNW 4 4 2 2 1014.6 1014.5 0.0
11/11:00pm 22.2 25.1 20.7 91 1.0 N 6 7 3 4 1014.7 1014.6 0.0
11/10:30pm 22.6 25.4 20.5 88 1.4 NW 6 6 3 3 1014.7 1014.6 0.0
11/10:00pm 23.0 25.6 20.1 84 1.9 NW 6 6 3 3 1014.6 1014.5 0.0
11/09:30pm 23.8 26.3 20.3 81 2.3 NNW 7 9 4 5 1014.5 1014.4 0.0
11/09:00pm 24.2 26.7 20.3 79 2.5 NW 7 11 4 6 1014.2 1014.1 0.0
11/08:30pm 24.5 26.3 19.6 74 3.2 NW 9 13 5 7 1013.9 1013.8 0.0
11/08:00pm 25.4 27.2 18.8 67 4.2 NW 7 9 4 5 1013.6 1013.5 0.0
11/07:30pm 26.2 27.7 18.9 64 4.7 NW 9 11 5 6 1013.2 1013.1 0.0
11/07:00pm 27.4 28.1 18.9 59 5.5 NW 13 19 7 10 1012.8 1012.7 0.0
11/06:30pm 28.6 29.2 19.5 58 5.9 NW 15 20 8 11 1012.4 1012.3 0.0
11/06:00pm 29.9 30.3 19.9 55 6.6 NW 17 22 9 12 1012.0 1011.9 0.0
11/05:30pm 31.0 31.6 20.3 53 7.1 NNW 17 24 9 13 1011.7 1011.6 0.0
11/05:00pm 32.1 32.9 20.7 51 7.6 NNW 17 26 9 14 1011.4 1011.3 0.0
11/04:30pm 33.1 34.5 20.3 47 8.5 NW 13 26 7 14 1011.2 1011.1 0.0
11/04:00pm 33.0 33.6 19.5 45 8.9 NNW 15 30 8 16 1011.3 1011.2 0.0
11/03:30pm 33.2 34.4 18.2 41 9.7 N 9 15 5 8 1011.3 1011.2 0.0
11/03:00pm 33.5 35.2 18.0 39 10.0 WSW 6 13 3 7 1011.5 1011.4 0.0
11/02:30pm 32.9 34.4 17.5 39 9.9 ENE 6 13 3 7 1012.0 1011.9 0.0
11/02:00pm 33.0 34.1 18.0 41 9.7 ENE 9 17 5 9 1012.6 1012.5 0.0
11/01:30pm 32.8 34.4 18.2 42 9.4 NW 7 13 4 7 1013.0 1012.9 0.0
11/01:00pm 32.3 34.1 18.8 44 8.8 N 7 17 4 9 1013.6 1013.5 0.0
11/12:30pm 31.4 33.4 18.7 46 8.2 NE 6 13 3 7 1014.1 1014.0 0.0
11/12:00pm 30.8 33.5 19.5 51 7.4 N 4 15 2 8 1014.7 1014.6 0.0
11/11:30am 30.7 33.7 20.0 52 7.1 ENE 4 9 2 5 1015.1 1015.0 0.0
11/11:00am 28.8 32.0 20.5 61 5.5 E 4 9 2 5 1015.6 1015.5 0.0
11/10:30am 28.1 31.0 20.6 63 4.9 NNW 6 9 3 5 1015.9 1015.8 0.0
11/10:00am 26.4 29.8 20.9 72 3.6 SW 4 7 2 4 1016.2 1016.1 0.0
11/09:30am 27.0 31.0 21.3 71 3.8 ESE 2 4 1 2 1016.1 1016.0 0.0
11/09:00am 25.9 29.4 21.1 75 3.2 SE 4 7 2 4 1016.0 1015.9 0.0
11/08:30am 24.7 27.9 20.4 77 2.8 S 4 7 2 4 1015.9 1015.8 0.0
11/08:00am 22.8 25.6 18.8 78 2.5 SE 2 2 1 1 1015.7 1015.6 0.0
11/07:30am 21.3 23.5 18.3 83 1.9 ESE 4 6 2 3 1015.3 1015.2 0.0
11/07:00am 20.2 22.4 18.3 89 1.2 NE 4 6 2 3 1014.9 1014.8 0.0
11/06:30am 18.6 19.9 16.2 86 1.4 NNE 4 4 2 2 1014.5 1014.4 0.0
11/06:00am 18.1 19.4 16.1 88 1.2 NNE 4 6 2 3 1014.4 1014.3 0.0
11/05:30am 18.3 19.2 16.1 87 1.3 NE 6 7 3 4 1014.0 1013.9 0.0
11/05:00am 17.1 18.1 15.3 89 1.0 NNE 4 6 2 3 1013.6 1013.5 0.0
11/04:30am 17.2 18.8 14.8 86 1.4 CALM 0 0 0 0 1013.5 1013.4 0.0
11/04:00am 17.6 19.2 15.0 85 1.5 CALM 0 0 0 0 1013.2 1013.1 0.0
11/03:30am 18.1 19.3 15.0 82 1.8 NNE 2 2 1 1 1013.3 1013.2 0.0
11/03:00am 17.9 19.1 15.0 83 1.7 NNE 2 4 1 2 1013.3 1013.2 0.0
11/02:30am 17.7 18.2 15.0 84 1.6 NNE 6 6 3 3 1013.4 1013.3 0.0
11/02:00am 17.2 17.5 14.5 84 1.6 WNW 6 6 3 3 1013.5 1013.4 0.0
11/01:30am 18.7 20.3 14.8 78 2.3 CALM 0 0 0 0 1013.7 1013.6 0.0
11/01:00am 19.1 20.6 14.6 75 2.6 CALM 0 0 0 0 1013.9 1013.8 0.0
11/12:30am 20.7 21.9 14.8 69 3.5 WNW 2 2 1 1 1014.1 1014.0 0.0
11/12:00am 20.6 21.1 14.9 70 3.3 WNW 6 6 3 3 1014.1 1014.0 0.0
 
Date/Time
CST
Temp
°C
App
Temp
°C
Dew
Point
°C
Rel
Hum
%
Delta-T
°C
Wind Press
QNH
hPa
Press
MSL
hPa
Rain since
9am
mm
Dir  Spd
km/h
Gust
km/h
Spd
kts
Gust
kts
10/11:30pm 21.0 21.5 14.9 68 3.6 W 6 7 3 4 1014.4 1014.3 0.0
10/11:00pm 19.6 19.8 14.6 73 2.9 W 7 9 4 5 1014.3 1014.2 0.0
10/10:30pm 21.3 22.1 14.9 67 3.8 WSW 4 6 2 3 1014.3 1014.2 0.0
10/10:00pm 22.0 22.6 15.4 66 3.9 W 6 6 3 3 1014.2 1014.1 0.0
10/09:30pm 21.4 21.8 14.8 66 3.9 WSW 6 6 3 3 1014.0 1013.9 0.0
10/09:00pm 22.0 22.3 15.1 65 4.1 WSW 7 11 4 6 1013.8 1013.7 0.0
10/08:30pm 23.6 23.6 15.1 59 5.1 N 9 9 5 5 1013.2 1013.1 0.0
10/08:00pm 24.3 24.8 15.0 56 5.6 N 6 7 3 4 1012.8 1012.7 0.0
10/07:30pm 25.2 25.6 15.2 54 6.0 N 7 9 4 5 1012.5 1012.4 0.0
10/07:00pm 26.8 26.8 15.2 49 7.0 N 9 13 5 7 1012.3 1012.2 0.0
10/06:30pm 28.8 28.1 15.3 43 8.3 N 13 15 7 8 1011.8 1011.7 0.0
10/06:00pm 30.6 29.4 15.1 39 9.5 NNE 15 19 8 10 1011.4 1011.3 0.0
10/05:30pm 31.5 29.9 15.0 36 10.2 N 17 20 9 11 1011.1 1011.0 0.0
10/05:00pm 33.6 32.9 11.5 26 13.0 S 6 11 3 6 1010.9 1010.8 0.0
10/04:30pm 33.7 32.8 11.5 26 13.1 ESE 7 13 4 7 1010.6 1010.6 0.0
10/04:00pm 34.0 32.7 11.2 25 13.4 SE 9 15 5 8 1010.6 1010.6 0.0
10/03:30pm 34.0 32.7 11.2 25 13.4 SSE 9 17 5 9 1010.7 1010.7 0.0
10/03:00pm 33.5 32.6 11.4 26 13.0 SE 7 17 4 9 1011.1 1011.0 0.0
10/02:30pm 33.2 32.6 11.7 27 12.7 SE 6 13 3 7 1011.5 1011.4 0.0
10/02:00pm 33.8 33.3 12.7 27 12.6 SE 7 22 4 12 1012.0 1011.9 0.0
10/01:30pm 32.9 32.2 12.0 28 12.4 NE 7 17 4 9 1012.5 1012.4 0.0
10/01:00pm 32.7 31.2 11.8 28 12.3 ESE 11 22 6 12 1013.0 1012.9 0.0
10/12:30pm 31.7 30.5 11.5 29 11.8 E 9 17 5 9 1013.4 1013.3 0.0
10/12:00pm 32.3 30.8 12.0 29 12.0 ENE 11 22 6 12 1013.9 1013.8 0.0
10/11:30am 31.5 30.6 13.7 33 10.7 E 11 20 6 11 1014.3 1014.2 0.0
10/11:00am 30.2 29.4 16.2 42 8.7 ENE 15 20 8 11 1014.9 1014.8 0.0
10/10:30am 29.1 29.5 18.2 51 7.0 NE 13 17 7 9 1015.0 1014.9 0.0
10/10:00am 28.1 28.5 19.1 58 5.8 NNE 15 22 8 12 1015.2 1015.1 0.0
10/09:30am 27.4 27.9 19.2 61 5.3 NE 15 20 8 11 1015.2 1015.1 0.0
10/09:00am 26.3 27.7 18.7 63 4.8 NNE 9 15 5 8 1015.1 1015.0 0.0
10/08:30am 24.3 26.4 19.4 74 3.1 NE 7 9 4 5 1015.0 1014.9 0.0
10/08:00am 20.6 24.1 19.6 94 0.6 CALM 0 0 0 0 1014.8 1014.7 0.0
10/07:30am 17.1 19.2 16.3 95 0.5 CALM 0 0 0 0 1014.5 1014.4 0.0
10/07:00am 16.0 17.7 15.2 95 0.5 CALM 0 0 0 0 1014.4 1014.3 0.0
10/06:30am 16.3 18.0 15.2 93 0.6 CALM 0 0 0 0 1014.4 1014.3 0.0
10/06:00am 17.4 19.1 16.1 92 0.8 S 2 4 1 2 1014.2 1014.1 0.0
10/05:30am 17.9 20.2 16.8 93 0.7 CALM 0 0 0 0 1014.0 1013.9 0.0
10/05:00am 17.4 19.6 16.4 94 0.6 CALM 0 0 0 0 1013.7 1013.6 0.0
10/04:30am 17.4 19.4 16.1 92 0.8 CALM 0 0 0 0 1013.5 1013.4 0.0
10/04:00am 17.7 19.7 16.0 90 1.0 CALM 0 0 0 0 1013.5 1013.4 0.0
10/03:30am 18.4 20.6 16.6 89 1.1 CALM 0 0 0 0 1013.5 1013.4 0.0
10/03:00am 18.3 20.7 17.1 93 0.7 CALM 0 0 0 0 1013.4 1013.3 0.0
10/02:30am 18.1 20.3 16.4 90 1.0 CALM 0 0 0 0 1013.3 1013.2 0.0
10/02:00am 18.6 20.9 16.8 89 1.1 CALM 0 0 0 0 1013.4 1013.3 0.0
10/01:30am 19.7 21.6 17.7 88 1.2 S 4 6 2 3 1013.6 1013.5 0.0
10/01:00am 18.7 21.0 16.7 88 1.2 CALM 0 0 0 0 1013.6 1013.5 0.0
10/12:30am 18.9 21.3 16.9 88 1.2 CALM 0 0 0 0 1013.8 1013.7 0.0
10/12:00am 19.6 21.9 16.8 84 1.7 CALM 0 0 0 0 1013.9 1013.8 0.0
 
Date/Time
CST
Temp
°C
App
Temp
°C
Dew
Point
°C
Rel
Hum
%
Delta-T
°C
Wind Press
QNH
hPa
Press
MSL
hPa
Rain since
9am
mm
Dir  Spd
km/h
Gust
km/h
Spd
kts
Gust
kts
09/11:30pm 20.1 22.5 16.9 82 1.9 CALM 0 0 0 0 1013.9 1013.8 0.0
09/11:00pm 21.7 23.6 17.7 78 2.5 S 4 6 2 3 1014.1 1014.0 0.0
09/10:30pm 21.3 23.3 17.9 81 2.1 NNE 4 6 2 3 1013.8 1013.7 0.0
09/10:00pm 21.7 23.2 17.5 77 2.6 NNE 6 7 3 4 1013.5 1013.4 0.0
09/09:30pm 23.4 26.0 17.6 70 3.6 CALM 0 0 0 0 1013.2 1013.1 0.0
09/09:00pm 23.9 26.7 17.9 69 3.8 CALM 0 2 0 1 1013.1 1013.0 0.0
09/08:30pm 25.2 27.8 18.4 66 4.3 NNW 2 4 1 2 1012.8 1012.7 0.0
09/08:00pm 24.8 26.9 18.0 66 4.3 NW 4 7 2 4 1012.6 1012.5 0.0
09/07:30pm 25.8 27.2 17.7 61 5.1 NNW 7 9 4 5 1012.2 1012.1 0.0
09/07:00pm 27.7 28.1 18.1 56 6.1 N 13 15 7 8 1011.9 1011.8 0.0
09/06:30pm 29.0 29.1 18.4 52 6.8 N 15 20 8 11 1011.6 1011.5 0.0
09/06:00pm 30.6 31.3 19.6 51 7.2 N 15 20 8 11 1011.1 1011.0 0.0
09/05:30pm 31.7 33.6 19.7 49 7.9 N 9 17 5 9 1010.6 1010.6 0.0
09/05:00pm 31.5 34.5 18.5 46 8.4 CALM 0 2 0 1 1010.5 1010.5 0.0
09/04:30pm 31.8 33.6 18.7 45 8.5 ENE 7 13 4 7 1010.4 1010.4 0.0
09/04:00pm 33.0 34.9 19.8 45 8.7 NNW 9 15 5 8 1010.5 1010.5 0.0
09/03:30pm 31.7 34.1 20.0 50 7.7 NNW 7 13 4 7 1010.9 1010.8 0.0
09/03:00pm 31.0 32.3 19.4 50 7.6 N 11 22 6 12 1011.1 1011.0 0.0
09/02:30pm 31.5 33.0 18.8 46 8.3 NNW 9 17 5 9 1011.3 1011.2 0.0
09/02:00pm 32.9 33.3 16.3 37 10.5 NE 9 17 5 9 1011.8 1011.7 0.0
09/01:30pm 31.5 32.3 16.3 40 9.5 E 7 13 4 7 1012.4 1012.3 0.0
09/01:00pm 31.9 32.5 17.8 43 9.0 ENE 11 17 6 9 1012.9 1012.8 0.0
09/12:30pm 31.3 32.0 17.9 44 8.6 NE 11 22 6 12 1013.6 1013.5 0.0
09/12:00pm 31.2 32.7 18.9 48 8.0 E 9 22 5 12 1014.1 1014.0 0.0
09/11:30am 31.4 32.4 18.7 46 8.2 NE 11 20 6 11 1014.5 1014.4 0.0
09/11:00am 29.1 31.3 19.7 57 6.1 NE 7 17 4 9 1015.1 1015.0 0.0
09/10:30am 29.0 30.6 19.9 58 6.0 ENE 11 17 6 9 1015.4 1015.3 0.0
09/10:00am 28.5 30.4 18.9 56 6.2 N 7 13 4 7 1015.5 1015.4 0.0
09/09:30am 27.4 29.0 17.8 55 6.1 E 6 9 3 5 1015.5 1015.4 0.0
09/09:00am 25.2 25.9 14.6 51 6.3 ESE 4 6 2 3 1015.4 1015.3 0.0
09/08:30am 22.5 24.2 15.1 63 4.4 CALM 0 2 0 1 1015.2 1015.1 0.0
09/08:28am 22.0 23.7 15.1 65 4.1 CALM 0 2 0 1 1015.1 1015.0 0.0
09/08:00am 17.0 18.7 15.2 89 1.0 CALM 0 0 0 0 1015.0 1014.9 0.0

Latest Capital City Observations: Canberra | Sydney | Melbourne | Brisbane | Adelaide | Perth | Hobart | Darwin

Other formats

Comma delimited format used in spreadsheet applications
http://www.bom.gov.au/fwo/IDD60901/IDD60901.95121.axf

JavaScript Object Notation format (JSON) in row-major order
http://www.bom.gov.au/fwo/IDD60901/IDD60901.95121.json

Data quality

Most of these data are generated automatically and are frequently updated. Quality checks on data are not normally performed. It is possible for incorrect values to appear. Refer to information at About Latest Weather Observations and please check the disclaimer before using these data.